sensor_id;sensor_type;location;lat;lon;timestamp;P1;durP1;ratioP1;P2;durP2;ratioP2
49123;SDS011;48506;48.202;16.274;2022-11-25T00:01:24;2.58;;;2.30;;
49123;SDS011;48506;48.202;16.274;2022-11-25T00:03:55;5.82;;;2.28;;
49123;SDS011;48506;48.202;16.274;2022-11-25T00:06:23;2.92;;;1.88;;
49123;SDS011;48506;48.202;16.274;2022-11-25T00:08:52;4.13;;;1.83;;
49123;SDS011;48506;48.202;16.274;2022-11-25T00:11:21;3.65;;;2.00;;
49123;SDS011;48506;48.202;16.274;2022-11-25T00:13:47;3.70;;;2.22;;
49123;SDS011;48506;48.202;16.274;2022-11-25T00:16:15;4.90;;;2.45;;
49123;SDS011;48506;48.202;16.274;2022-11-25T00:18:44;4.40;;;2.05;;
49123;SDS011;48506;48.202;16.274;2022-11-25T00:21:13;6.75;;;2.40;;
49123;SDS011;48506;48.202;16.274;2022-11-25T00:23:40;3.00;;;2.15;;
49123;SDS011;48506;48.202;16.274;2022-11-25T00:26:16;10.23;;;2.10;;
49123;SDS011;48506;48.202;16.274;2022-11-25T00:28:42;3.90;;;2.00;;
49123;SDS011;48506;48.202;16.274;2022-11-25T00:31:11;4.82;;;2.47;;
49123;SDS011;48506;48.202;16.274;2022-11-25T00:33:39;3.53;;;1.77;;
49123;SDS011;48506;48.202;16.274;2022-11-25T00:36:06;2.70;;;1.98;;
49123;SDS011;48506;48.202;16.274;2022-11-25T00:38:43;3.65;;;1.70;;
49123;SDS011;48506;48.202;16.274;2022-11-25T00:41:09;5.65;;;3.05;;
49123;SDS011;48506;48.202;16.274;2022-11-25T00:43:53;3.92;;;2.30;;
49123;SDS011;48506;48.202;16.274;2022-11-25T00:46:37;3.95;;;2.10;;
49123;SDS011;48506;48.202;16.274;2022-11-25T00:49:03;8.05;;;2.38;;
49123;SDS011;48506;48.202;16.274;2022-11-25T00:51:29;3.22;;;1.85;;
49123;SDS011;48506;48.202;16.274;2022-11-25T00:53:55;4.80;;;1.98;;
49123;SDS011;48506;48.202;16.274;2022-11-25T00:56:21;3.45;;;1.63;;
49123;SDS011;48506;48.202;16.274;2022-11-25T00:58:48;2.65;;;1.58;;
49123;SDS011;48506;48.202;16.274;2022-11-25T01:01:14;3.03;;;2.03;;
49123;SDS011;48506;48.202;16.274;2022-11-25T01:03:40;3.22;;;1.60;;
49123;SDS011;48506;48.202;16.274;2022-11-25T01:06:07;3.70;;;2.45;;
49123;SDS011;48506;48.202;16.274;2022-11-25T01:08:35;3.47;;;1.80;;
49123;SDS011;48506;48.202;16.274;2022-11-25T01:11:06;3.08;;;2.33;;
49123;SDS011;48506;48.202;16.274;2022-11-25T01:13:34;3.60;;;1.92;;
49123;SDS011;48506;48.202;16.274;2022-11-25T01:16:04;4.00;;;2.65;;
49123;SDS011;48506;48.202;16.274;2022-11-25T01:18:31;2.53;;;2.33;;
49123;SDS011;48506;48.202;16.274;2022-11-25T01:21:04;4.10;;;2.55;;
49123;SDS011;48506;48.202;16.274;2022-11-25T01:23:30;4.53;;;1.63;;
49123;SDS011;48506;48.202;16.274;2022-11-25T01:25:56;3.35;;;2.05;;
49123;SDS011;48506;48.202;16.274;2022-11-25T01:28:24;3.90;;;2.45;;
49123;SDS011;48506;48.202;16.274;2022-11-25T01:30:58;2.83;;;2.22;;
49123;SDS011;48506;48.202;16.274;2022-11-25T01:33:28;3.78;;;2.05;;
49123;SDS011;48506;48.202;16.274;2022-11-25T01:38:30;3.97;;;1.65;;
49123;SDS011;48506;48.202;16.274;2022-11-25T01:40:57;9.25;;;2.80;;
49123;SDS011;48506;48.202;16.274;2022-11-25T01:43:24;4.20;;;2.15;;
49123;SDS011;48506;48.202;16.274;2022-11-25T01:45:51;3.03;;;2.03;;
49123;SDS011;48506;48.202;16.274;2022-11-25T01:48:28;4.45;;;2.25;;
49123;SDS011;48506;48.202;16.274;2022-11-25T01:51:17;5.50;;;2.22;;
49123;SDS011;48506;48.202;16.274;2022-11-25T01:53:58;2.55;;;2.25;;
49123;SDS011;48506;48.202;16.274;2022-11-25T01:56:27;8.95;;;2.67;;
49123;SDS011;48506;48.202;16.274;2022-11-25T01:58:58;3.35;;;1.65;;
49123;SDS011;48506;48.202;16.274;2022-11-25T02:01:24;3.10;;;2.15;;
49123;SDS011;48506;48.202;16.274;2022-11-25T02:03:51;2.75;;;1.70;;
49123;SDS011;48506;48.202;16.274;2022-11-25T02:06:27;4.07;;;1.90;;
49123;SDS011;48506;48.202;16.274;2022-11-25T02:08:57;8.90;;;2.88;;
49123;SDS011;48506;48.202;16.274;2022-11-25T02:11:28;4.80;;;2.05;;
49123;SDS011;48506;48.202;16.274;2022-11-25T02:13:56;3.72;;;2.08;;
49123;SDS011;48506;48.202;16.274;2022-11-25T02:16:23;6.18;;;2.30;;
49123;SDS011;48506;48.202;16.274;2022-11-25T02:18:49;6.25;;;2.15;;
49123;SDS011;48506;48.202;16.274;2022-11-25T02:21:23;4.85;;;2.53;;
49123;SDS011;48506;48.202;16.274;2022-11-25T02:24:08;4.45;;;2.75;;
49123;SDS011;48506;48.202;16.274;2022-11-25T02:26:40;4.68;;;2.10;;
49123;SDS011;48506;48.202;16.274;2022-11-25T02:29:06;7.13;;;2.85;;
49123;SDS011;48506;48.202;16.274;2022-11-25T02:31:32;3.45;;;2.10;;
49123;SDS011;48506;48.202;16.274;2022-11-25T02:33:58;3.58;;;2.00;;
49123;SDS011;48506;48.202;16.274;2022-11-25T02:36:24;3.22;;;2.05;;
49123;SDS011;48506;48.202;16.274;2022-11-25T02:38:59;6.10;;;2.17;;
49123;SDS011;48506;48.202;16.274;2022-11-25T02:41:27;6.80;;;2.10;;
49123;SDS011;48506;48.202;16.274;2022-11-25T02:43:57;6.70;;;2.35;;
49123;SDS011;48506;48.202;16.274;2022-11-25T02:46:25;4.25;;;1.90;;
49123;SDS011;48506;48.202;16.274;2022-11-25T02:48:53;2.75;;;2.03;;
49123;SDS011;48506;48.202;16.274;2022-11-25T02:51:22;9.55;;;2.85;;
49123;SDS011;48506;48.202;16.274;2022-11-25T02:53:50;2.97;;;2.45;;
49123;SDS011;48506;48.202;16.274;2022-11-25T02:56:17;6.47;;;2.55;;
49123;SDS011;48506;48.202;16.274;2022-11-25T02:58:46;2.83;;;2.30;;
49123;SDS011;48506;48.202;16.274;2022-11-25T03:01:12;4.75;;;2.55;;
49123;SDS011;48506;48.202;16.274;2022-11-25T03:03:38;3.20;;;2.13;;
49123;SDS011;48506;48.202;16.274;2022-11-25T03:06:04;4.57;;;1.65;;
49123;SDS011;48506;48.202;16.274;2022-11-25T03:08:30;2.65;;;1.63;;
49123;SDS011;48506;48.202;16.274;2022-11-25T03:10:56;2.47;;;1.60;;
49123;SDS011;48506;48.202;16.274;2022-11-25T03:13:21;8.68;;;2.25;;
49123;SDS011;48506;48.202;16.274;2022-11-25T03:15:47;4.30;;;2.28;;
49123;SDS011;48506;48.202;16.274;2022-11-25T03:18:13;1.85;;;1.40;;
49123;SDS011;48506;48.202;16.274;2022-11-25T03:20:39;2.67;;;1.67;;
49123;SDS011;48506;48.202;16.274;2022-11-25T03:23:05;4.25;;;1.70;;
49123;SDS011;48506;48.202;16.274;2022-11-25T03:25:31;4.40;;;2.67;;
49123;SDS011;48506;48.202;16.274;2022-11-25T03:27:59;3.10;;;1.73;;
49123;SDS011;48506;48.202;16.274;2022-11-25T03:30:26;3.22;;;2.08;;
49123;SDS011;48506;48.202;16.274;2022-11-25T03:32:53;3.38;;;1.42;;
49123;SDS011;48506;48.202;16.274;2022-11-25T03:35:19;3.35;;;1.83;;
49123;SDS011;48506;48.202;16.274;2022-11-25T03:37:45;2.92;;;1.60;;
49123;SDS011;48506;48.202;16.274;2022-11-25T03:40:12;3.08;;;1.70;;
49123;SDS011;48506;48.202;16.274;2022-11-25T03:42:39;1.92;;;1.58;;
49123;SDS011;48506;48.202;16.274;2022-11-25T03:45:06;2.50;;;1.40;;
49123;SDS011;48506;48.202;16.274;2022-11-25T03:47:34;4.40;;;2.05;;
49123;SDS011;48506;48.202;16.274;2022-11-25T03:50:00;4.85;;;1.92;;
49123;SDS011;48506;48.202;16.274;2022-11-25T03:52:26;4.72;;;2.30;;
49123;SDS011;48506;48.202;16.274;2022-11-25T03:54:52;3.85;;;1.85;;
49123;SDS011;48506;48.202;16.274;2022-11-25T03:57:18;4.25;;;1.65;;
49123;SDS011;48506;48.202;16.274;2022-11-25T03:59:44;5.55;;;2.38;;
49123;SDS011;48506;48.202;16.274;2022-11-25T04:02:10;8.40;;;2.40;;
49123;SDS011;48506;48.202;16.274;2022-11-25T04:04:36;3.55;;;1.98;;
49123;SDS011;48506;48.202;16.274;2022-11-25T04:07:02;1.88;;;1.48;;
49123;SDS011;48506;48.202;16.274;2022-11-25T04:09:28;9.35;;;1.67;;
49123;SDS011;48506;48.202;16.274;2022-11-25T04:11:54;5.55;;;1.52;;
49123;SDS011;48506;48.202;16.274;2022-11-25T04:14:39;6.47;;;2.22;;
49123;SDS011;48506;48.202;16.274;2022-11-25T04:17:04;2.67;;;1.63;;
49123;SDS011;48506;48.202;16.274;2022-11-25T04:19:31;3.55;;;1.98;;
49123;SDS011;48506;48.202;16.274;2022-11-25T04:21:56;4.40;;;2.03;;
49123;SDS011;48506;48.202;16.274;2022-11-25T04:24:25;5.55;;;1.98;;
49123;SDS011;48506;48.202;16.274;2022-11-25T04:26:51;3.55;;;2.13;;
49123;SDS011;48506;48.202;16.274;2022-11-25T04:29:17;3.70;;;2.00;;
49123;SDS011;48506;48.202;16.274;2022-11-25T04:31:44;3.83;;;1.63;;
49123;SDS011;48506;48.202;16.274;2022-11-25T04:34:10;3.03;;;1.58;;
49123;SDS011;48506;48.202;16.274;2022-11-25T04:36:36;4.20;;;2.28;;
49123;SDS011;48506;48.202;16.274;2022-11-25T04:39:02;1.85;;;1.73;;
49123;SDS011;48506;48.202;16.274;2022-11-25T04:41:28;2.97;;;1.45;;
49123;SDS011;48506;48.202;16.274;2022-11-25T04:43:57;3.17;;;1.92;;
49123;SDS011;48506;48.202;16.274;2022-11-25T04:46:25;1.23;;;1.07;;
49123;SDS011;48506;48.202;16.274;2022-11-25T04:48:58;4.93;;;1.90;;
49123;SDS011;48506;48.202;16.274;2022-11-25T04:51:25;2.60;;;1.67;;
49123;SDS011;48506;48.202;16.274;2022-11-25T04:53:50;5.57;;;1.55;;
49123;SDS011;48506;48.202;16.274;2022-11-25T04:56:17;2.85;;;1.52;;
49123;SDS011;48506;48.202;16.274;2022-11-25T04:58:45;3.40;;;1.50;;
49123;SDS011;48506;48.202;16.274;2022-11-25T05:01:30;2.22;;;1.30;;
49123;SDS011;48506;48.202;16.274;2022-11-25T05:03:56;2.67;;;1.40;;
49123;SDS011;48506;48.202;16.274;2022-11-25T05:06:22;2.53;;;2.22;;
49123;SDS011;48506;48.202;16.274;2022-11-25T05:08:48;2.50;;;1.55;;
49123;SDS011;48506;48.202;16.274;2022-11-25T05:11:15;4.78;;;1.70;;
49123;SDS011;48506;48.202;16.274;2022-11-25T05:13:41;4.95;;;1.35;;
49123;SDS011;48506;48.202;16.274;2022-11-25T05:16:07;1.63;;;1.52;;
49123;SDS011;48506;48.202;16.274;2022-11-25T05:18:33;3.20;;;1.60;;
49123;SDS011;48506;48.202;16.274;2022-11-25T05:21:00;10.63;;;2.17;;
49123;SDS011;48506;48.202;16.274;2022-11-25T05:23:27;2.75;;;1.30;;
49123;SDS011;48506;48.202;16.274;2022-11-25T05:25:57;4.40;;;1.90;;
49123;SDS011;48506;48.202;16.274;2022-11-25T05:28:27;2.47;;;1.40;;
49123;SDS011;48506;48.202;16.274;2022-11-25T05:30:54;5.45;;;1.80;;
49123;SDS011;48506;48.202;16.274;2022-11-25T05:33:21;3.45;;;1.98;;
49123;SDS011;48506;48.202;16.274;2022-11-25T05:35:56;2.17;;;1.65;;
49123;SDS011;48506;48.202;16.274;2022-11-25T05:38:25;7.20;;;1.80;;
49123;SDS011;48506;48.202;16.274;2022-11-25T05:40:51;7.18;;;1.80;;
49123;SDS011;48506;48.202;16.274;2022-11-25T05:43:19;4.07;;;1.92;;
49123;SDS011;48506;48.202;16.274;2022-11-25T05:45:46;2.97;;;1.92;;
49123;SDS011;48506;48.202;16.274;2022-11-25T05:48:12;3.05;;;1.83;;
49123;SDS011;48506;48.202;16.274;2022-11-25T05:50:39;4.30;;;2.65;;
49123;SDS011;48506;48.202;16.274;2022-11-25T05:53:05;3.00;;;1.85;;
49123;SDS011;48506;48.202;16.274;2022-11-25T05:55:31;5.57;;;2.33;;
49123;SDS011;48506;48.202;16.274;2022-11-25T05:57:58;4.35;;;2.15;;
49123;SDS011;48506;48.202;16.274;2022-11-25T06:00:25;3.65;;;1.90;;
49123;SDS011;48506;48.202;16.274;2022-11-25T06:02:51;4.45;;;2.42;;
49123;SDS011;48506;48.202;16.274;2022-11-25T06:05:17;9.95;;;3.35;;
49123;SDS011;48506;48.202;16.274;2022-11-25T06:07:44;3.33;;;2.20;;
49123;SDS011;48506;48.202;16.274;2022-11-25T06:10:11;3.80;;;2.15;;
49123;SDS011;48506;48.202;16.274;2022-11-25T06:12:37;6.80;;;2.40;;
49123;SDS011;48506;48.202;16.274;2022-11-25T06:15:04;8.77;;;3.10;;
49123;SDS011;48506;48.202;16.274;2022-11-25T06:17:31;5.40;;;2.85;;
49123;SDS011;48506;48.202;16.274;2022-11-25T06:19:57;5.18;;;3.30;;
49123;SDS011;48506;48.202;16.274;2022-11-25T06:22:24;7.15;;;3.50;;
49123;SDS011;48506;48.202;16.274;2022-11-25T06:24:51;11.77;;;3.25;;
49123;SDS011;48506;48.202;16.274;2022-11-25T06:27:17;7.80;;;3.03;;
49123;SDS011;48506;48.202;16.274;2022-11-25T06:29:43;6.32;;;3.55;;
49123;SDS011;48506;48.202;16.274;2022-11-25T06:32:09;6.10;;;3.45;;
49123;SDS011;48506;48.202;16.274;2022-11-25T06:34:35;11.82;;;2.60;;
49123;SDS011;48506;48.202;16.274;2022-11-25T06:37:06;8.45;;;3.38;;
49123;SDS011;48506;48.202;16.274;2022-11-25T06:39:33;5.65;;;2.97;;
49123;SDS011;48506;48.202;16.274;2022-11-25T06:42:00;6.32;;;3.13;;
49123;SDS011;48506;48.202;16.274;2022-11-25T06:44:28;10.35;;;4.07;;
49123;SDS011;48506;48.202;16.274;2022-11-25T06:46:54;10.50;;;4.70;;
49123;SDS011;48506;48.202;16.274;2022-11-25T06:49:21;13.55;;;4.97;;
49123;SDS011;48506;48.202;16.274;2022-11-25T06:51:48;9.73;;;4.18;;
49123;SDS011;48506;48.202;16.274;2022-11-25T06:54:15;12.13;;;5.07;;
49123;SDS011;48506;48.202;16.274;2022-11-25T06:56:42;8.60;;;3.67;;
49123;SDS011;48506;48.202;16.274;2022-11-25T06:59:09;7.18;;;3.03;;
49123;SDS011;48506;48.202;16.274;2022-11-25T07:01:36;5.85;;;2.95;;
49123;SDS011;48506;48.202;16.274;2022-11-25T07:04:03;9.20;;;3.50;;
49123;SDS011;48506;48.202;16.274;2022-11-25T07:06:31;3.28;;;2.22;;
49123;SDS011;48506;48.202;16.274;2022-11-25T07:08:58;6.75;;;2.60;;
49123;SDS011;48506;48.202;16.274;2022-11-25T07:11:26;6.63;;;2.53;;
49123;SDS011;48506;48.202;16.274;2022-11-25T07:13:55;5.88;;;2.67;;
49123;SDS011;48506;48.202;16.274;2022-11-25T07:16:23;4.82;;;2.53;;
49123;SDS011;48506;48.202;16.274;2022-11-25T07:18:50;8.48;;;3.38;;
49123;SDS011;48506;48.202;16.274;2022-11-25T07:21:18;6.15;;;2.92;;
49123;SDS011;48506;48.202;16.274;2022-11-25T07:23:47;10.63;;;2.58;;
49123;SDS011;48506;48.202;16.274;2022-11-25T07:26:15;12.20;;;3.25;;
49123;SDS011;48506;48.202;16.274;2022-11-25T07:28:47;2.33;;;1.98;;
49123;SDS011;48506;48.202;16.274;2022-11-25T07:31:16;6.53;;;2.83;;
49123;SDS011;48506;48.202;16.274;2022-11-25T07:33:44;6.13;;;2.70;;
49123;SDS011;48506;48.202;16.274;2022-11-25T07:36:12;13.80;;;3.10;;
49123;SDS011;48506;48.202;16.274;2022-11-25T07:38:40;4.57;;;2.40;;
49123;SDS011;48506;48.202;16.274;2022-11-25T07:41:07;8.13;;;3.22;;
49123;SDS011;48506;48.202;16.274;2022-11-25T07:43:35;9.18;;;2.60;;
49123;SDS011;48506;48.202;16.274;2022-11-25T07:46:09;6.95;;;2.72;;
49123;SDS011;48506;48.202;16.274;2022-11-25T07:48:37;8.38;;;3.65;;
49123;SDS011;48506;48.202;16.274;2022-11-25T07:51:04;10.75;;;3.28;;
49123;SDS011;48506;48.202;16.274;2022-11-25T07:53:37;8.35;;;3.28;;
49123;SDS011;48506;48.202;16.274;2022-11-25T07:56:04;6.90;;;4.03;;
49123;SDS011;48506;48.202;16.274;2022-11-25T07:58:32;9.27;;;4.35;;
49123;SDS011;48506;48.202;16.274;2022-11-25T08:01:02;9.38;;;3.38;;
49123;SDS011;48506;48.202;16.274;2022-11-25T08:03:30;6.35;;;3.67;;
49123;SDS011;48506;48.202;16.274;2022-11-25T08:06:01;9.50;;;3.38;;
49123;SDS011;48506;48.202;16.274;2022-11-25T08:08:33;6.68;;;3.70;;
49123;SDS011;48506;48.202;16.274;2022-11-25T08:11:04;14.70;;;3.78;;
49123;SDS011;48506;48.202;16.274;2022-11-25T08:13:41;11.45;;;4.47;;
49123;SDS011;48506;48.202;16.274;2022-11-25T08:16:10;13.18;;;4.18;;
49123;SDS011;48506;48.202;16.274;2022-11-25T08:18:37;7.50;;;3.15;;
49123;SDS011;48506;48.202;16.274;2022-11-25T08:21:05;9.40;;;4.13;;
49123;SDS011;48506;48.202;16.274;2022-11-25T08:23:36;8.73;;;3.38;;
49123;SDS011;48506;48.202;16.274;2022-11-25T08:26:04;8.82;;;3.33;;
49123;SDS011;48506;48.202;16.274;2022-11-25T08:28:31;5.28;;;3.17;;
49123;SDS011;48506;48.202;16.274;2022-11-25T08:31:05;7.82;;;4.18;;
49123;SDS011;48506;48.202;16.274;2022-11-25T08:33:36;4.10;;;3.00;;
49123;SDS011;48506;48.202;16.274;2022-11-25T08:36:04;4.15;;;2.13;;
49123;SDS011;48506;48.202;16.274;2022-11-25T08:38:31;3.15;;;2.30;;
49123;SDS011;48506;48.202;16.274;2022-11-25T08:40:58;7.53;;;2.55;;
49123;SDS011;48506;48.202;16.274;2022-11-25T08:43:25;6.85;;;3.10;;
49123;SDS011;48506;48.202;16.274;2022-11-25T08:45:51;4.72;;;2.33;;
49123;SDS011;48506;48.202;16.274;2022-11-25T08:48:19;11.13;;;2.60;;
49123;SDS011;48506;48.202;16.274;2022-11-25T08:50:47;8.15;;;2.65;;
49123;SDS011;48506;48.202;16.274;2022-11-25T08:53:16;7.30;;;2.25;;
49123;SDS011;48506;48.202;16.274;2022-11-25T08:55:44;7.65;;;2.97;;
49123;SDS011;48506;48.202;16.274;2022-11-25T08:58:10;3.58;;;1.75;;
49123;SDS011;48506;48.202;16.274;2022-11-25T09:00:38;6.07;;;2.88;;
49123;SDS011;48506;48.202;16.274;2022-11-25T09:03:05;6.93;;;2.78;;
49123;SDS011;48506;48.202;16.274;2022-11-25T09:05:33;5.95;;;1.77;;
49123;SDS011;48506;48.202;16.274;2022-11-25T09:08:02;6.95;;;1.77;;
49123;SDS011;48506;48.202;16.274;2022-11-25T09:10:30;4.53;;;1.85;;
49123;SDS011;48506;48.202;16.274;2022-11-25T09:12:58;4.70;;;1.55;;
49123;SDS011;48506;48.202;16.274;2022-11-25T09:15:25;7.05;;;2.30;;
49123;SDS011;48506;48.202;16.274;2022-11-25T09:17:58;3.22;;;2.10;;
49123;SDS011;48506;48.202;16.274;2022-11-25T09:20:26;6.20;;;2.38;;
49123;SDS011;48506;48.202;16.274;2022-11-25T09:22:53;5.60;;;1.88;;
49123;SDS011;48506;48.202;16.274;2022-11-25T09:25:20;5.35;;;2.65;;
49123;SDS011;48506;48.202;16.274;2022-11-25T09:27:47;2.70;;;1.13;;
49123;SDS011;48506;48.202;16.274;2022-11-25T09:30:13;10.35;;;2.45;;
49123;SDS011;48506;48.202;16.274;2022-11-25T09:32:40;8.50;;;2.63;;
49123;SDS011;48506;48.202;16.274;2022-11-25T09:35:08;3.22;;;1.77;;
49123;SDS011;48506;48.202;16.274;2022-11-25T09:37:35;9.23;;;1.50;;
49123;SDS011;48506;48.202;16.274;2022-11-25T09:40:03;9.30;;;1.50;;
49123;SDS011;48506;48.202;16.274;2022-11-25T09:53:54;4.95;;;1.95;;
49123;SDS011;48506;48.202;16.274;2022-11-25T09:56:41;3.42;;;1.50;;
49123;SDS011;48506;48.202;16.274;2022-11-25T09:59:29;6.05;;;1.60;;
49123;SDS011;48506;48.202;16.274;2022-11-25T10:02:02;3.38;;;1.70;;
49123;SDS011;48506;48.202;16.274;2022-11-25T10:04:46;5.43;;;1.55;;
49123;SDS011;48506;48.202;16.274;2022-11-25T10:07:21;8.57;;;1.25;;
49123;SDS011;48506;48.202;16.274;2022-11-25T10:09:59;2.85;;;1.30;;
49123;SDS011;48506;48.202;16.274;2022-11-25T10:12:29;3.25;;;1.45;;
49123;SDS011;48506;48.202;16.274;2022-11-25T10:15:03;4.38;;;1.80;;
49123;SDS011;48506;48.202;16.274;2022-11-25T10:18:12;2.92;;;0.90;;
49123;SDS011;48506;48.202;16.274;2022-11-25T10:20:46;2.45;;;0.85;;
49123;SDS011;48506;48.202;16.274;2022-11-25T10:23:22;3.30;;;1.35;;
49123;SDS011;48506;48.202;16.274;2022-11-25T10:25:54;5.70;;;1.35;;
49123;SDS011;48506;48.202;16.274;2022-11-25T10:28:30;1.83;;;1.40;;
49123;SDS011;48506;48.202;16.274;2022-11-25T10:33:44;3.17;;;1.05;;
49123;SDS011;48506;48.202;16.274;2022-11-25T10:41:54;8.55;;;1.13;;
49123;SDS011;48506;48.202;16.274;2022-11-25T10:52:31;3.00;;;1.10;;
49123;SDS011;48506;48.202;16.274;2022-11-25T10:57:41;2.88;;;1.35;;
49123;SDS011;48506;48.202;16.274;2022-11-25T11:00:23;3.42;;;0.82;;
49123;SDS011;48506;48.202;16.274;2022-11-25T11:02:51;1.55;;;0.80;;
49123;SDS011;48506;48.202;16.274;2022-11-25T11:05:23;7.30;;;1.80;;
49123;SDS011;48506;48.202;16.274;2022-11-25T11:10:34;2.70;;;1.33;;
49123;SDS011;48506;48.202;16.274;2022-11-25T11:15:32;3.53;;;1.23;;
49123;SDS011;48506;48.202;16.274;2022-11-25T11:18:20;1.52;;;0.75;;
49123;SDS011;48506;48.202;16.274;2022-11-25T11:20:50;1.50;;;0.82;;
49123;SDS011;48506;48.202;16.274;2022-11-25T11:23:18;2.55;;;1.17;;
49123;SDS011;48506;48.202;16.274;2022-11-25T11:28:29;1.40;;;0.88;;
49123;SDS011;48506;48.202;16.274;2022-11-25T11:31:02;4.72;;;1.02;;
49123;SDS011;48506;48.202;16.274;2022-11-25T11:33:32;5.30;;;1.95;;
49123;SDS011;48506;48.202;16.274;2022-11-25T11:39:05;3.45;;;1.50;;
49123;SDS011;48506;48.202;16.274;2022-11-25T11:44:35;8.95;;;1.80;;
49123;SDS011;48506;48.202;16.274;2022-11-25T11:47:28;9.43;;;3.53;;
49123;SDS011;48506;48.202;16.274;2022-11-25T11:50:17;6.75;;;4.03;;
49123;SDS011;48506;48.202;16.274;2022-11-25T11:55:50;11.18;;;5.00;;
49123;SDS011;48506;48.202;16.274;2022-11-25T11:58:52;9.00;;;5.95;;
49123;SDS011;48506;48.202;16.274;2022-11-25T12:01:34;10.93;;;5.05;;
49123;SDS011;48506;48.202;16.274;2022-11-25T12:10:01;8.02;;;5.45;;
49123;SDS011;48506;48.202;16.274;2022-11-25T12:12:37;9.63;;;5.80;;
49123;SDS011;48506;48.202;16.274;2022-11-25T12:17:50;10.43;;;6.28;;
49123;SDS011;48506;48.202;16.274;2022-11-25T12:26:20;8.15;;;5.25;;
49123;SDS011;48506;48.202;16.274;2022-11-25T12:28:53;9.90;;;5.40;;
49123;SDS011;48506;48.202;16.274;2022-11-25T12:31:28;11.68;;;5.40;;
49123;SDS011;48506;48.202;16.274;2022-11-25T12:36:54;8.27;;;5.20;;
49123;SDS011;48506;48.202;16.274;2022-11-25T12:39:35;8.63;;;5.32;;
49123;SDS011;48506;48.202;16.274;2022-11-25T12:42:24;10.35;;;5.18;;
49123;SDS011;48506;48.202;16.274;2022-11-25T12:47:50;10.63;;;5.25;;
49123;SDS011;48506;48.202;16.274;2022-11-25T12:50:19;10.10;;;4.40;;
49123;SDS011;48506;48.202;16.274;2022-11-25T12:53:01;13.00;;;5.32;;
49123;SDS011;48506;48.202;16.274;2022-11-25T12:55:37;9.25;;;5.05;;
49123;SDS011;48506;48.202;16.274;2022-11-25T13:06:34;9.82;;;4.32;;
49123;SDS011;48506;48.202;16.274;2022-11-25T13:09:28;9.68;;;4.20;;
49123;SDS011;48506;48.202;16.274;2022-11-25T13:17:38;10.65;;;3.83;;
49123;SDS011;48506;48.202;16.274;2022-11-25T13:25:30;7.13;;;3.70;;
49123;SDS011;48506;48.202;16.274;2022-11-25T13:27:58;8.57;;;4.57;;
49123;SDS011;48506;48.202;16.274;2022-11-25T13:40:57;6.38;;;2.22;;
49123;SDS011;48506;48.202;16.274;2022-11-25T13:43:28;6.30;;;2.60;;
49123;SDS011;48506;48.202;16.274;2022-11-25T13:45:54;7.82;;;2.65;;
49123;SDS011;48506;48.202;16.274;2022-11-25T13:48:22;5.70;;;2.80;;
49123;SDS011;48506;48.202;16.274;2022-11-25T13:51:11;5.68;;;2.33;;
49123;SDS011;48506;48.202;16.274;2022-11-25T13:53:59;4.25;;;1.88;;
49123;SDS011;48506;48.202;16.274;2022-11-25T13:56:29;4.65;;;1.98;;
49123;SDS011;48506;48.202;16.274;2022-11-25T14:01:37;5.75;;;1.90;;
49123;SDS011;48506;48.202;16.274;2022-11-25T14:04:08;4.20;;;1.17;;
49123;SDS011;48506;48.202;16.274;2022-11-25T14:06:46;4.45;;;1.48;;
49123;SDS011;48506;48.202;16.274;2022-11-25T14:20:44;6.10;;;1.67;;
49123;SDS011;48506;48.202;16.274;2022-11-25T14:26:10;6.45;;;1.10;;
49123;SDS011;48506;48.202;16.274;2022-11-25T14:31:15;4.57;;;1.48;;
49123;SDS011;48506;48.202;16.274;2022-11-25T14:33:56;3.25;;;1.55;;
49123;SDS011;48506;48.202;16.274;2022-11-25T14:36:37;3.75;;;1.70;;
49123;SDS011;48506;48.202;16.274;2022-11-25T14:39:13;2.28;;;1.65;;
49123;SDS011;48506;48.202;16.274;2022-11-25T14:44:24;6.70;;;1.48;;
49123;SDS011;48506;48.202;16.274;2022-11-25T14:46:55;4.95;;;1.67;;
49123;SDS011;48506;48.202;16.274;2022-11-25T14:49:23;4.70;;;1.73;;
49123;SDS011;48506;48.202;16.274;2022-11-25T14:52:06;6.57;;;3.58;;
49123;SDS011;48506;48.202;16.274;2022-11-25T14:54:38;9.35;;;3.78;;
49123;SDS011;48506;48.202;16.274;2022-11-25T14:57:09;9.13;;;3.60;;
49123;SDS011;48506;48.202;16.274;2022-11-25T14:59:36;7.00;;;2.45;;
49123;SDS011;48506;48.202;16.274;2022-11-25T15:02:03;9.98;;;3.55;;
49123;SDS011;48506;48.202;16.274;2022-11-25T15:04:30;6.90;;;3.80;;
49123;SDS011;48506;48.202;16.274;2022-11-25T15:06:58;7.40;;;3.15;;
49123;SDS011;48506;48.202;16.274;2022-11-25T15:09:31;3.97;;;2.90;;
49123;SDS011;48506;48.202;16.274;2022-11-25T15:12:03;6.20;;;2.88;;
49123;SDS011;48506;48.202;16.274;2022-11-25T15:14:32;7.20;;;3.13;;
49123;SDS011;48506;48.202;16.274;2022-11-25T15:17:08;6.60;;;2.08;;
49123;SDS011;48506;48.202;16.274;2022-11-25T15:19:44;5.22;;;2.70;;
49123;SDS011;48506;48.202;16.274;2022-11-25T15:22:19;8.05;;;2.78;;
49123;SDS011;48506;48.202;16.274;2022-11-25T15:24:48;5.53;;;2.60;;
49123;SDS011;48506;48.202;16.274;2022-11-25T15:27:19;8.15;;;3.25;;
49123;SDS011;48506;48.202;16.274;2022-11-25T15:29:52;7.47;;;2.85;;
49123;SDS011;48506;48.202;16.274;2022-11-25T15:34:51;5.10;;;2.63;;
49123;SDS011;48506;48.202;16.274;2022-11-25T15:37:19;6.00;;;3.50;;
49123;SDS011;48506;48.202;16.274;2022-11-25T15:39:47;5.97;;;3.08;;
49123;SDS011;48506;48.202;16.274;2022-11-25T15:44:49;7.80;;;2.50;;
49123;SDS011;48506;48.202;16.274;2022-11-25T15:47:22;5.68;;;2.90;;
49123;SDS011;48506;48.202;16.274;2022-11-25T15:50:06;6.70;;;2.95;;
49123;SDS011;48506;48.202;16.274;2022-11-25T15:52:55;8.23;;;3.60;;
49123;SDS011;48506;48.202;16.274;2022-11-25T15:58:00;5.88;;;3.50;;
49123;SDS011;48506;48.202;16.274;2022-11-25T16:00:29;5.05;;;3.35;;
49123;SDS011;48506;48.202;16.274;2022-11-25T16:02:55;9.43;;;4.50;;
49123;SDS011;48506;48.202;16.274;2022-11-25T16:05:24;10.98;;;3.95;;
49123;SDS011;48506;48.202;16.274;2022-11-25T16:08:18;12.93;;;5.93;;
49123;SDS011;48506;48.202;16.274;2022-11-25T16:14:17;10.20;;;4.57;;
49123;SDS011;48506;48.202;16.274;2022-11-25T16:16:50;9.07;;;4.93;;
49123;SDS011;48506;48.202;16.274;2022-11-25T16:19:20;9.07;;;4.68;;
49123;SDS011;48506;48.202;16.274;2022-11-25T16:21:58;8.45;;;4.30;;
49123;SDS011;48506;48.202;16.274;2022-11-25T16:27:23;11.27;;;5.13;;
49123;SDS011;48506;48.202;16.274;2022-11-25T16:32:31;6.53;;;4.43;;
49123;SDS011;48506;48.202;16.274;2022-11-25T16:35:18;8.50;;;3.55;;
49123;SDS011;48506;48.202;16.274;2022-11-25T16:37:48;14.38;;;3.90;;
49123;SDS011;48506;48.202;16.274;2022-11-25T16:40:15;7.72;;;3.80;;
49123;SDS011;48506;48.202;16.274;2022-11-25T16:42:45;6.63;;;3.63;;
49123;SDS011;48506;48.202;16.274;2022-11-25T16:47:46;10.00;;;4.30;;
49123;SDS011;48506;48.202;16.274;2022-11-25T16:50:13;7.47;;;4.35;;
49123;SDS011;48506;48.202;16.274;2022-11-25T16:52:40;9.40;;;3.83;;
49123;SDS011;48506;48.202;16.274;2022-11-25T16:55:07;4.70;;;3.75;;
49123;SDS011;48506;48.202;16.274;2022-11-25T16:57:34;8.07;;;4.05;;
49123;SDS011;48506;48.202;16.274;2022-11-25T17:00:03;13.32;;;5.55;;
49123;SDS011;48506;48.202;16.274;2022-11-25T17:02:36;11.90;;;4.95;;
49123;SDS011;48506;48.202;16.274;2022-11-25T17:05:13;10.75;;;5.55;;
49123;SDS011;48506;48.202;16.274;2022-11-25T17:07:46;9.23;;;4.80;;
49123;SDS011;48506;48.202;16.274;2022-11-25T17:10:15;10.98;;;6.50;;
49123;SDS011;48506;48.202;16.274;2022-11-25T17:12:42;22.95;;;8.73;;